sensor_id;sensor_type;location;lat;lon;timestamp;P1;durP1;ratioP1;P2;durP2;ratioP2
16228;SDS011;8222;51.462;12.630;2023-02-03T00:01:47;3.53;;;1.67;;
16228;SDS011;8222;51.462;12.630;2023-02-03T00:04:13;2.50;;;1.50;;
16228;SDS011;8222;51.462;12.630;2023-02-03T00:06:38;2.60;;;1.90;;
16228;SDS011;8222;51.462;12.630;2023-02-03T00:09:04;2.22;;;1.48;;
16228;SDS011;8222;51.462;12.630;2023-02-03T00:11:30;1.73;;;1.63;;
16228;SDS011;8222;51.462;12.630;2023-02-03T00:13:56;0.70;;;0.70;;
16228;SDS011;8222;51.462;12.630;2023-02-03T00:16:24;2.38;;;1.30;;
16228;SDS011;8222;51.462;12.630;2023-02-03T00:18:52;2.03;;;1.10;;
16228;SDS011;8222;51.462;12.630;2023-02-03T00:21:17;1.40;;;1.10;;
16228;SDS011;8222;51.462;12.630;2023-02-03T00:23:43;3.95;;;1.40;;
16228;SDS011;8222;51.462;12.630;2023-02-03T00:26:09;1.60;;;0.93;;
16228;SDS011;8222;51.462;12.630;2023-02-03T00:28:40;2.60;;;1.25;;
16228;SDS011;8222;51.462;12.630;2023-02-03T00:31:13;2.30;;;1.10;;
16228;SDS011;8222;51.462;12.630;2023-02-03T00:33:40;1.45;;;1.15;;
16228;SDS011;8222;51.462;12.630;2023-02-03T00:36:05;2.72;;;1.30;;
16228;SDS011;8222;51.462;12.630;2023-02-03T00:38:32;2.80;;;1.20;;
16228;SDS011;8222;51.462;12.630;2023-02-03T00:40:59;2.20;;;1.27;;
16228;SDS011;8222;51.462;12.630;2023-02-03T00:43:25;2.20;;;1.33;;
16228;SDS011;8222;51.462;12.630;2023-02-03T00:45:50;3.20;;;1.35;;
16228;SDS011;8222;51.462;12.630;2023-02-03T00:48:16;4.20;;;1.77;;
16228;SDS011;8222;51.462;12.630;2023-02-03T00:50:45;3.75;;;1.75;;
16228;SDS011;8222;51.462;12.630;2023-02-03T00:53:11;3.23;;;2.00;;
16228;SDS011;8222;51.462;12.630;2023-02-03T00:55:37;3.57;;;2.03;;
16228;SDS011;8222;51.462;12.630;2023-02-03T00:58:03;2.35;;;1.50;;
16228;SDS011;8222;51.462;12.630;2023-02-03T01:00:30;4.57;;;2.28;;
16228;SDS011;8222;51.462;12.630;2023-02-03T01:02:56;1.93;;;1.30;;
16228;SDS011;8222;51.462;12.630;2023-02-03T01:05:22;3.67;;;2.07;;
16228;SDS011;8222;51.462;12.630;2023-02-03T01:07:47;2.47;;;1.50;;
16228;SDS011;8222;51.462;12.630;2023-02-03T01:10:13;2.10;;;1.42;;
16228;SDS011;8222;51.462;12.630;2023-02-03T01:12:41;1.17;;;1.00;;
16228;SDS011;8222;51.462;12.630;2023-02-03T01:15:06;2.63;;;1.07;;
16228;SDS011;8222;51.462;12.630;2023-02-03T01:17:33;2.05;;;1.17;;
16228;SDS011;8222;51.462;12.630;2023-02-03T01:19:58;1.23;;;1.00;;
16228;SDS011;8222;51.462;12.630;2023-02-03T01:22:24;1.30;;;0.88;;
16228;SDS011;8222;51.462;12.630;2023-02-03T01:24:50;1.77;;;0.95;;
16228;SDS011;8222;51.462;12.630;2023-02-03T01:27:17;2.67;;;1.10;;
16228;SDS011;8222;51.462;12.630;2023-02-03T01:29:43;2.00;;;0.90;;
16228;SDS011;8222;51.462;12.630;2023-02-03T01:32:08;2.90;;;1.37;;
16228;SDS011;8222;51.462;12.630;2023-02-03T01:34:36;0.95;;;0.63;;
16228;SDS011;8222;51.462;12.630;2023-02-03T01:37:01;2.87;;;0.90;;
16228;SDS011;8222;51.462;12.630;2023-02-03T01:39:27;2.40;;;1.00;;
16228;SDS011;8222;51.462;12.630;2023-02-03T01:41:53;2.33;;;1.10;;
16228;SDS011;8222;51.462;12.630;2023-02-03T01:47:04;3.55;;;1.10;;
16228;SDS011;8222;51.462;12.630;2023-02-03T01:49:39;1.30;;;1.20;;
16228;SDS011;8222;51.462;12.630;2023-02-03T01:52:08;1.67;;;1.15;;
16228;SDS011;8222;51.462;12.630;2023-02-03T01:54:36;1.55;;;1.35;;
16228;SDS011;8222;51.462;12.630;2023-02-03T01:57:09;2.05;;;1.65;;
16228;SDS011;8222;51.462;12.630;2023-02-03T01:59:45;1.77;;;1.60;;
16228;SDS011;8222;51.462;12.630;2023-02-03T02:02:13;2.13;;;1.42;;
16228;SDS011;8222;51.462;12.630;2023-02-03T02:04:46;1.92;;;1.40;;
16228;SDS011;8222;51.462;12.630;2023-02-03T02:07:26;1.90;;;1.75;;
16228;SDS011;8222;51.462;12.630;2023-02-03T02:09:54;2.73;;;1.90;;
16228;SDS011;8222;51.462;12.630;2023-02-03T02:12:20;2.30;;;1.95;;
16228;SDS011;8222;51.462;12.630;2023-02-03T02:14:46;2.58;;;2.17;;
16228;SDS011;8222;51.462;12.630;2023-02-03T02:30:57;3.47;;;3.17;;
16228;SDS011;8222;51.462;12.630;2023-02-03T02:36:31;4.15;;;3.75;;
16228;SDS011;8222;51.462;12.630;2023-02-03T02:41:48;4.75;;;4.20;;
16228;SDS011;8222;51.462;12.630;2023-02-03T02:44:22;4.67;;;3.97;;
16228;SDS011;8222;51.462;12.630;2023-02-03T02:46:50;5.25;;;4.30;;
16228;SDS011;8222;51.462;12.630;2023-02-03T02:49:24;4.73;;;4.23;;
16228;SDS011;8222;51.462;12.630;2023-02-03T02:52:19;5.70;;;5.10;;
16228;SDS011;8222;51.462;12.630;2023-02-03T02:54:48;5.10;;;4.60;;
16228;SDS011;8222;51.462;12.630;2023-02-03T02:57:19;6.18;;;5.47;;
16228;SDS011;8222;51.462;12.630;2023-02-03T02:59:48;4.77;;;4.03;;
16228;SDS011;8222;51.462;12.630;2023-02-03T03:02:14;6.13;;;4.27;;
16228;SDS011;8222;51.462;12.630;2023-02-03T03:04:41;5.03;;;4.50;;
16228;SDS011;8222;51.462;12.630;2023-02-03T03:07:13;5.88;;;5.28;;
16228;SDS011;8222;51.462;12.630;2023-02-03T03:09:48;6.25;;;5.57;;
16228;SDS011;8222;51.462;12.630;2023-02-03T03:12:20;6.30;;;5.50;;
16228;SDS011;8222;51.462;12.630;2023-02-03T03:14:55;5.90;;;5.15;;
16228;SDS011;8222;51.462;12.630;2023-02-03T03:17:32;6.63;;;5.50;;
16228;SDS011;8222;51.462;12.630;2023-02-03T03:20:05;5.30;;;4.80;;
16228;SDS011;8222;51.462;12.630;2023-02-03T03:22:37;6.57;;;5.85;;
16228;SDS011;8222;51.462;12.630;2023-02-03T03:25:11;8.13;;;6.40;;
16228;SDS011;8222;51.462;12.630;2023-02-03T03:27:39;7.18;;;6.47;;
16228;SDS011;8222;51.462;12.630;2023-02-03T03:30:09;6.53;;;5.93;;
16228;SDS011;8222;51.462;12.630;2023-02-03T03:32:39;6.78;;;5.80;;
16228;SDS011;8222;51.462;12.630;2023-02-03T03:35:05;7.53;;;6.40;;
16228;SDS011;8222;51.462;12.630;2023-02-03T03:37:35;8.45;;;7.40;;
16228;SDS011;8222;51.462;12.630;2023-02-03T03:40:21;6.78;;;6.07;;
16228;SDS011;8222;51.462;12.630;2023-02-03T03:42:57;7.45;;;6.57;;
16228;SDS011;8222;51.462;12.630;2023-02-03T03:48:40;9.18;;;7.18;;
16228;SDS011;8222;51.462;12.630;2023-02-03T03:51:16;8.82;;;7.07;;
16228;SDS011;8222;51.462;12.630;2023-02-03T03:54:08;7.18;;;6.35;;
16228;SDS011;8222;51.462;12.630;2023-02-03T03:56:56;9.20;;;7.30;;
16228;SDS011;8222;51.462;12.630;2023-02-03T03:59:39;9.10;;;7.77;;
16228;SDS011;8222;51.462;12.630;2023-02-03T04:02:08;7.95;;;7.05;;
16228;SDS011;8222;51.462;12.630;2023-02-03T04:04:36;8.43;;;7.32;;
16228;SDS011;8222;51.462;12.630;2023-02-03T04:07:04;9.38;;;7.90;;
16228;SDS011;8222;51.462;12.630;2023-02-03T04:09:30;8.68;;;7.65;;
16228;SDS011;8222;51.462;12.630;2023-02-03T04:11:56;7.32;;;6.43;;
16228;SDS011;8222;51.462;12.630;2023-02-03T04:14:31;9.40;;;7.68;;
16228;SDS011;8222;51.462;12.630;2023-02-03T04:16:58;8.85;;;7.95;;
16228;SDS011;8222;51.462;12.630;2023-02-03T04:19:25;13.20;;;11.80;;
16228;SDS011;8222;51.462;12.630;2023-02-03T04:21:51;8.83;;;7.70;;
16228;SDS011;8222;51.462;12.630;2023-02-03T04:24:17;9.32;;;7.57;;
16228;SDS011;8222;51.462;12.630;2023-02-03T04:26:42;9.00;;;8.10;;
16228;SDS011;8222;51.462;12.630;2023-02-03T04:29:08;9.70;;;7.97;;
16228;SDS011;8222;51.462;12.630;2023-02-03T04:31:34;11.03;;;8.83;;
16228;SDS011;8222;51.462;12.630;2023-02-03T04:34:00;9.90;;;7.03;;
16228;SDS011;8222;51.462;12.630;2023-02-03T04:36:26;8.43;;;7.27;;
16228;SDS011;8222;51.462;12.630;2023-02-03T04:38:51;9.98;;;7.40;;
16228;SDS011;8222;51.462;12.630;2023-02-03T04:41:17;9.95;;;8.40;;
16228;SDS011;8222;51.462;12.630;2023-02-03T04:43:43;9.20;;;7.40;;
16228;SDS011;8222;51.462;12.630;2023-02-03T04:46:08;9.32;;;7.63;;
16228;SDS011;8222;51.462;12.630;2023-02-03T04:48:36;9.48;;;7.40;;
16228;SDS011;8222;51.462;12.630;2023-02-03T04:51:02;8.87;;;7.80;;
16228;SDS011;8222;51.462;12.630;2023-02-03T04:53:29;9.05;;;8.13;;
16228;SDS011;8222;51.462;12.630;2023-02-03T04:55:58;8.25;;;6.85;;
16228;SDS011;8222;51.462;12.630;2023-02-03T04:58:24;9.97;;;7.53;;
16228;SDS011;8222;51.462;12.630;2023-02-03T05:00:53;9.10;;;7.85;;
16228;SDS011;8222;51.462;12.630;2023-02-03T05:03:19;10.93;;;8.73;;
16228;SDS011;8222;51.462;12.630;2023-02-03T05:05:45;12.57;;;9.60;;
16228;SDS011;8222;51.462;12.630;2023-02-03T05:08:13;11.80;;;9.32;;
16228;SDS011;8222;51.462;12.630;2023-02-03T05:10:39;13.10;;;9.35;;
16228;SDS011;8222;51.462;12.630;2023-02-03T05:13:05;13.90;;;9.80;;
16228;SDS011;8222;51.462;12.630;2023-02-03T05:15:30;11.50;;;9.80;;
16228;SDS011;8222;51.462;12.630;2023-02-03T05:17:56;10.70;;;7.97;;
16228;SDS011;8222;51.462;12.630;2023-02-03T05:20:24;10.00;;;8.55;;
16228;SDS011;8222;51.462;12.630;2023-02-03T05:22:49;11.07;;;8.20;;
16228;SDS011;8222;51.462;12.630;2023-02-03T05:25:15;8.98;;;7.80;;
16228;SDS011;8222;51.462;12.630;2023-02-03T05:27:41;11.23;;;9.57;;
16228;SDS011;8222;51.462;12.630;2023-02-03T05:30:08;9.05;;;7.57;;
16228;SDS011;8222;51.462;12.630;2023-02-03T05:32:35;8.77;;;7.63;;
16228;SDS011;8222;51.462;12.630;2023-02-03T05:35:00;10.48;;;8.50;;
16228;SDS011;8222;51.462;12.630;2023-02-03T05:37:26;9.52;;;8.07;;
16228;SDS011;8222;51.462;12.630;2023-02-03T05:39:53;9.33;;;7.33;;
16228;SDS011;8222;51.462;12.630;2023-02-03T05:42:39;9.50;;;8.50;;
16228;SDS011;8222;51.462;12.630;2023-02-03T05:45:11;9.48;;;8.40;;
16228;SDS011;8222;51.462;12.630;2023-02-03T05:47:39;12.23;;;10.40;;
16228;SDS011;8222;51.462;12.630;2023-02-03T05:50:04;10.07;;;8.98;;
16228;SDS011;8222;51.462;12.630;2023-02-03T05:52:30;10.45;;;9.05;;
16228;SDS011;8222;51.462;12.630;2023-02-03T05:54:58;9.88;;;8.70;;
16228;SDS011;8222;51.462;12.630;2023-02-03T05:57:23;10.35;;;8.77;;
16228;SDS011;8222;51.462;12.630;2023-02-03T05:59:49;8.85;;;7.13;;
16228;SDS011;8222;51.462;12.630;2023-02-03T06:02:15;8.90;;;7.50;;
16228;SDS011;8222;51.462;12.630;2023-02-03T06:04:42;11.25;;;8.55;;
16228;SDS011;8222;51.462;12.630;2023-02-03T06:07:08;9.30;;;8.17;;
16228;SDS011;8222;51.462;12.630;2023-02-03T06:09:34;9.02;;;8.13;;
16228;SDS011;8222;51.462;12.630;2023-02-03T06:12:00;9.07;;;5.93;;
16228;SDS011;8222;51.462;12.630;2023-02-03T06:14:25;8.45;;;7.60;;
16228;SDS011;8222;51.462;12.630;2023-02-03T06:16:52;7.90;;;7.10;;
16228;SDS011;8222;51.462;12.630;2023-02-03T06:19:18;9.57;;;6.80;;
16228;SDS011;8222;51.462;12.630;2023-02-03T06:21:43;7.77;;;6.97;;
16228;SDS011;8222;51.462;12.630;2023-02-03T06:24:11;7.78;;;6.85;;
16228;SDS011;8222;51.462;12.630;2023-02-03T06:26:36;7.15;;;6.45;;
16228;SDS011;8222;51.462;12.630;2023-02-03T06:29:02;7.13;;;6.43;;
16228;SDS011;8222;51.462;12.630;2023-02-03T06:31:28;8.32;;;6.50;;
16228;SDS011;8222;51.462;12.630;2023-02-03T06:33:55;6.95;;;6.25;;
16228;SDS011;8222;51.462;12.630;2023-02-03T06:36:21;6.63;;;5.75;;
16228;SDS011;8222;51.462;12.630;2023-02-03T06:38:47;7.63;;;6.78;;
16228;SDS011;8222;51.462;12.630;2023-02-03T06:41:13;6.88;;;6.18;;
16228;SDS011;8222;51.462;12.630;2023-02-03T06:43:38;8.10;;;7.30;;
16228;SDS011;8222;51.462;12.630;2023-02-03T06:46:04;7.60;;;6.90;;
16228;SDS011;8222;51.462;12.630;2023-02-03T06:48:30;7.20;;;6.50;;
16228;SDS011;8222;51.462;12.630;2023-02-03T06:50:55;8.00;;;6.65;;
16228;SDS011;8222;51.462;12.630;2023-02-03T06:53:21;8.80;;;7.20;;
16228;SDS011;8222;51.462;12.630;2023-02-03T06:55:48;8.10;;;6.67;;
16228;SDS011;8222;51.462;12.630;2023-02-03T06:58:14;12.43;;;9.57;;
16228;SDS011;8222;51.462;12.630;2023-02-03T07:00:40;7.53;;;6.82;;
16228;SDS011;8222;51.462;12.630;2023-02-03T07:03:05;7.75;;;6.95;;
16228;SDS011;8222;51.462;12.630;2023-02-03T07:05:31;7.70;;;6.90;;
16228;SDS011;8222;51.462;12.630;2023-02-03T07:07:57;6.63;;;6.03;;
16228;SDS011;8222;51.462;12.630;2023-02-03T07:10:23;7.73;;;7.03;;
16228;SDS011;8222;51.462;12.630;2023-02-03T07:12:49;7.27;;;6.57;;
16228;SDS011;8222;51.462;12.630;2023-02-03T07:15:15;8.77;;;6.53;;
16228;SDS011;8222;51.462;12.630;2023-02-03T07:17:41;7.28;;;6.60;;
16228;SDS011;8222;51.462;12.630;2023-02-03T07:20:07;6.43;;;5.80;;
16228;SDS011;8222;51.462;12.630;2023-02-03T07:22:33;6.15;;;5.60;;
16228;SDS011;8222;51.462;12.630;2023-02-03T07:25:00;7.15;;;5.65;;
16228;SDS011;8222;51.462;12.630;2023-02-03T07:27:25;8.00;;;6.10;;
16228;SDS011;8222;51.462;12.630;2023-02-03T07:29:53;6.22;;;5.28;;
16228;SDS011;8222;51.462;12.630;2023-02-03T07:32:19;6.88;;;5.13;;
16228;SDS011;8222;51.462;12.630;2023-02-03T07:34:44;6.57;;;5.97;;
16228;SDS011;8222;51.462;12.630;2023-02-03T07:37:12;7.63;;;6.00;;
16228;SDS011;8222;51.462;12.630;2023-02-03T07:39:37;9.13;;;7.63;;
16228;SDS011;8222;51.462;12.630;2023-02-03T07:42:03;10.60;;;8.07;;
16228;SDS011;8222;51.462;12.630;2023-02-03T07:44:29;9.23;;;6.97;;
16228;SDS011;8222;51.462;12.630;2023-02-03T07:46:55;8.27;;;6.60;;
16228;SDS011;8222;51.462;12.630;2023-02-03T07:49:20;6.63;;;5.93;;
16228;SDS011;8222;51.462;12.630;2023-02-03T07:51:46;5.40;;;4.90;;
16228;SDS011;8222;51.462;12.630;2023-02-03T07:54:11;6.68;;;5.50;;
16228;SDS011;8222;51.462;12.630;2023-02-03T07:56:40;7.05;;;5.28;;
16228;SDS011;8222;51.462;12.630;2023-02-03T07:59:06;8.75;;;5.57;;
16228;SDS011;8222;51.462;12.630;2023-02-03T08:01:34;6.63;;;5.43;;
16228;SDS011;8222;51.462;12.630;2023-02-03T08:03:59;5.05;;;4.57;;
16228;SDS011;8222;51.462;12.630;2023-02-03T08:06:26;7.25;;;5.28;;
16228;SDS011;8222;51.462;12.630;2023-02-03T08:08:54;5.35;;;4.85;;
16228;SDS011;8222;51.462;12.630;2023-02-03T08:11:20;6.72;;;5.00;;
16228;SDS011;8222;51.462;12.630;2023-02-03T08:13:45;5.68;;;5.05;;
16228;SDS011;8222;51.462;12.630;2023-02-03T08:16:13;5.55;;;5.05;;
16228;SDS011;8222;51.462;12.630;2023-02-03T08:18:39;5.70;;;5.20;;
16228;SDS011;8222;51.462;12.630;2023-02-03T08:21:04;6.20;;;5.18;;
16228;SDS011;8222;51.462;12.630;2023-02-03T08:23:32;7.55;;;5.90;;
16228;SDS011;8222;51.462;12.630;2023-02-03T08:25:57;6.18;;;5.40;;
16228;SDS011;8222;51.462;12.630;2023-02-03T08:28:23;7.47;;;5.95;;
16228;SDS011;8222;51.462;12.630;2023-02-03T08:30:49;4.90;;;4.47;;
16228;SDS011;8222;51.462;12.630;2023-02-03T08:33:16;7.10;;;5.20;;
16228;SDS011;8222;51.462;12.630;2023-02-03T08:35:45;6.38;;;5.25;;
16228;SDS011;8222;51.462;12.630;2023-02-03T08:38:12;8.32;;;5.53;;
16228;SDS011;8222;51.462;12.630;2023-02-03T08:40:38;4.97;;;4.47;;
16228;SDS011;8222;51.462;12.630;2023-02-03T08:43:06;6.47;;;5.20;;
16228;SDS011;8222;51.462;12.630;2023-02-03T08:45:32;5.57;;;5.07;;
16228;SDS011;8222;51.462;12.630;2023-02-03T08:47:57;4.20;;;3.90;;
16228;SDS011;8222;51.462;12.630;2023-02-03T08:50:23;5.57;;;5.03;;
16228;SDS011;8222;51.462;12.630;2023-02-03T08:52:52;6.10;;;5.00;;
16228;SDS011;8222;51.462;12.630;2023-02-03T08:55:18;4.50;;;4.10;;
16228;SDS011;8222;51.462;12.630;2023-02-03T08:57:43;5.37;;;4.73;;
16228;SDS011;8222;51.462;12.630;2023-02-03T09:00:09;4.20;;;3.80;;
16228;SDS011;8222;51.462;12.630;2023-02-03T09:02:36;4.80;;;4.30;;
16228;SDS011;8222;51.462;12.630;2023-02-03T09:05:02;4.57;;;4.10;;
16228;SDS011;8222;51.462;12.630;2023-02-03T09:07:27;3.50;;;3.20;;
16228;SDS011;8222;51.462;12.630;2023-02-03T09:09:53;3.90;;;3.60;;
16228;SDS011;8222;51.462;12.630;2023-02-03T09:12:22;5.30;;;3.60;;
16228;SDS011;8222;51.462;12.630;2023-02-03T09:14:48;4.03;;;3.63;;
16228;SDS011;8222;51.462;12.630;2023-02-03T09:17:13;4.75;;;4.25;;
16228;SDS011;8222;51.462;12.630;2023-02-03T09:19:39;5.07;;;3.88;;
16228;SDS011;8222;51.462;12.630;2023-02-03T09:22:04;3.70;;;3.40;;
16228;SDS011;8222;51.462;12.630;2023-02-03T09:24:30;4.88;;;3.53;;
16228;SDS011;8222;51.462;12.630;2023-02-03T09:26:56;4.20;;;3.53;;
16228;SDS011;8222;51.462;12.630;2023-02-03T09:29:22;4.40;;;4.00;;
16228;SDS011;8222;51.462;12.630;2023-02-03T09:31:48;7.10;;;3.57;;
16228;SDS011;8222;51.462;12.630;2023-02-03T09:34:18;4.33;;;3.83;;
16228;SDS011;8222;51.462;12.630;2023-02-03T09:36:45;4.85;;;3.47;;
16228;SDS011;8222;51.462;12.630;2023-02-03T09:39:11;3.60;;;3.30;;
16228;SDS011;8222;51.462;12.630;2023-02-03T09:44:43;4.90;;;3.78;;
16228;SDS011;8222;51.462;12.630;2023-02-03T09:47:24;4.57;;;3.40;;
16228;SDS011;8222;51.462;12.630;2023-02-03T09:49:57;3.22;;;2.70;;
16228;SDS011;8222;51.462;12.630;2023-02-03T09:52:35;4.75;;;3.28;;
16228;SDS011;8222;51.462;12.630;2023-02-03T10:06:06;3.83;;;2.60;;
16228;SDS011;8222;51.462;12.630;2023-02-03T10:22:32;2.83;;;2.60;;
16228;SDS011;8222;51.462;12.630;2023-02-03T10:27:38;2.72;;;2.28;;
16228;SDS011;8222;51.462;12.630;2023-02-03T10:33:13;2.40;;;2.20;;
16228;SDS011;8222;51.462;12.630;2023-02-03T10:38:45;2.23;;;2.03;;
16228;SDS011;8222;51.462;12.630;2023-02-03T10:41:10;3.47;;;2.30;;
16228;SDS011;8222;51.462;12.630;2023-02-03T10:43:35;3.90;;;1.80;;
16228;SDS011;8222;51.462;12.630;2023-02-03T10:46:11;2.17;;;1.93;;
16228;SDS011;8222;51.462;12.630;2023-02-03T10:48:40;2.80;;;1.90;;
16228;SDS011;8222;51.462;12.630;2023-02-03T10:51:22;2.07;;;1.97;;
16228;SDS011;8222;51.462;12.630;2023-02-03T10:53:55;2.50;;;1.80;;
16228;SDS011;8222;51.462;12.630;2023-02-03T10:56:26;2.05;;;1.90;;
16228;SDS011;8222;51.462;12.630;2023-02-03T10:59:00;2.10;;;2.00;;
16228;SDS011;8222;51.462;12.630;2023-02-03T11:01:47;3.10;;;2.25;;
16228;SDS011;8222;51.462;12.630;2023-02-03T11:06:58;1.95;;;1.65;;
16228;SDS011;8222;51.462;12.630;2023-02-03T11:09:39;2.45;;;1.92;;
16228;SDS011;8222;51.462;12.630;2023-02-03T11:14:41;3.40;;;2.30;;
16228;SDS011;8222;51.462;12.630;2023-02-03T11:17:29;2.38;;;2.13;;
16228;SDS011;8222;51.462;12.630;2023-02-03T11:20:17;2.17;;;2.00;;
16228;SDS011;8222;51.462;12.630;2023-02-03T11:22:42;2.97;;;1.95;;
16228;SDS011;8222;51.462;12.630;2023-02-03T11:25:16;2.75;;;2.03;;
16228;SDS011;8222;51.462;12.630;2023-02-03T11:27:46;2.33;;;2.13;;
16228;SDS011;8222;51.462;12.630;2023-02-03T11:30:16;2.28;;;2.03;;
16228;SDS011;8222;51.462;12.630;2023-02-03T11:32:53;2.60;;;2.08;;
16228;SDS011;8222;51.462;12.630;2023-02-03T11:35:20;2.28;;;1.85;;
16228;SDS011;8222;51.462;12.630;2023-02-03T11:37:54;2.20;;;2.00;;
16228;SDS011;8222;51.462;12.630;2023-02-03T11:40:26;2.63;;;2.25;;
16228;SDS011;8222;51.462;12.630;2023-02-03T11:45:28;1.90;;;1.80;;
16228;SDS011;8222;51.462;12.630;2023-02-03T11:51:03;1.73;;;1.40;;
16228;SDS011;8222;51.462;12.630;2023-02-03T11:59:45;1.57;;;1.33;;
16228;SDS011;8222;51.462;12.630;2023-02-03T12:05:28;1.27;;;1.08;;
16228;SDS011;8222;51.462;12.630;2023-02-03T12:27:56;2.13;;;1.35;;
16228;SDS011;8222;51.462;12.630;2023-02-03T12:30:46;1.10;;;0.90;;
16228;SDS011;8222;51.462;12.630;2023-02-03T12:33:22;2.97;;;1.33;;
16228;SDS011;8222;51.462;12.630;2023-02-03T12:35:59;2.10;;;1.10;;
16228;SDS011;8222;51.462;12.630;2023-02-03T12:38:34;4.80;;;1.40;;
16228;SDS011;8222;51.462;12.630;2023-02-03T12:44:19;2.83;;;1.38;;
16228;SDS011;8222;51.462;12.630;2023-02-03T12:47:03;3.33;;;1.48;;
16228;SDS011;8222;51.462;12.630;2023-02-03T12:49:41;4.40;;;1.58;;
16228;SDS011;8222;51.462;12.630;2023-02-03T12:55:31;5.50;;;1.33;;
16228;SDS011;8222;51.462;12.630;2023-02-03T12:58:08;2.63;;;1.33;;
16228;SDS011;8222;51.462;12.630;2023-02-03T13:00:46;4.20;;;1.20;;
16228;SDS011;8222;51.462;12.630;2023-02-03T13:06:13;4.15;;;1.50;;
16228;SDS011;8222;51.462;12.630;2023-02-03T13:14:03;6.40;;;1.90;;
16228;SDS011;8222;51.462;12.630;2023-02-03T13:16:34;7.70;;;1.98;;
16228;SDS011;8222;51.462;12.630;2023-02-03T13:19:05;5.60;;;1.75;;
16228;SDS011;8222;51.462;12.630;2023-02-03T13:21:39;6.90;;;2.13;;
16228;SDS011;8222;51.462;12.630;2023-02-03T13:24:06;8.70;;;2.47;;
16228;SDS011;8222;51.462;12.630;2023-02-03T13:35:25;5.72;;;2.50;;
16228;SDS011;8222;51.462;12.630;2023-02-03T13:43:54;6.13;;;2.03;;
16228;SDS011;8222;51.462;12.630;2023-02-03T13:46:32;8.32;;;2.88;;
16228;SDS011;8222;51.462;12.630;2023-02-03T13:49:00;8.52;;;2.28;;
16228;SDS011;8222;51.462;12.630;2023-02-03T13:51:29;11.18;;;2.40;;
16228;SDS011;8222;51.462;12.630;2023-02-03T13:54:00;8.52;;;2.47;;
16228;SDS011;8222;51.462;12.630;2023-02-03T13:56:38;6.85;;;1.92;;
16228;SDS011;8222;51.462;12.630;2023-02-03T13:59:05;9.40;;;3.00;;
16228;SDS011;8222;51.462;12.630;2023-02-03T14:01:38;8.90;;;2.63;;
16228;SDS011;8222;51.462;12.630;2023-02-03T14:04:06;7.57;;;2.95;;
16228;SDS011;8222;51.462;12.630;2023-02-03T14:06:54;9.85;;;3.03;;
16228;SDS011;8222;51.462;12.630;2023-02-03T14:12:16;9.67;;;2.83;;
16228;SDS011;8222;51.462;12.630;2023-02-03T14:14:55;11.48;;;2.95;;
16228;SDS011;8222;51.462;12.630;2023-02-03T14:20:00;10.98;;;3.00;;
16228;SDS011;8222;51.462;12.630;2023-02-03T14:22:46;10.70;;;3.17;;
16228;SDS011;8222;51.462;12.630;2023-02-03T14:25:12;11.55;;;3.60;;
16228;SDS011;8222;51.462;12.630;2023-02-03T14:27:43;11.40;;;3.47;;
16228;SDS011;8222;51.462;12.630;2023-02-03T14:30:12;8.60;;;2.97;;
16228;SDS011;8222;51.462;12.630;2023-02-03T14:38:03;8.38;;;3.30;;
16228;SDS011;8222;51.462;12.630;2023-02-03T14:40:45;11.07;;;2.90;;
16228;SDS011;8222;51.462;12.630;2023-02-03T14:46:15;10.77;;;3.00;;
16228;SDS011;8222;51.462;12.630;2023-02-03T14:48:45;10.30;;;3.38;;
16228;SDS011;8222;51.462;12.630;2023-02-03T14:56:54;7.65;;;2.70;;
16228;SDS011;8222;51.462;12.630;2023-02-03T14:59:44;6.63;;;2.50;;
16228;SDS011;8222;51.462;12.630;2023-02-03T15:02:27;7.07;;;2.65;;
16228;SDS011;8222;51.462;12.630;2023-02-03T15:07:48;7.93;;;2.30;;
16228;SDS011;8222;51.462;12.630;2023-02-03T15:12:44;9.57;;;2.85;;
16228;SDS011;8222;51.462;12.630;2023-02-03T15:15:25;7.32;;;2.92;;
16228;SDS011;8222;51.462;12.630;2023-02-03T15:17:56;8.57;;;2.83;;
16228;SDS011;8222;51.462;12.630;2023-02-03T15:20:37;9.88;;;3.63;;
16228;SDS011;8222;51.462;12.630;2023-02-03T15:23:18;8.63;;;4.07;;
16228;SDS011;8222;51.462;12.630;2023-02-03T15:26:08;6.00;;;2.72;;
16228;SDS011;8222;51.462;12.630;2023-02-03T15:29:01;9.57;;;2.40;;
16228;SDS011;8222;51.462;12.630;2023-02-03T15:31:51;6.40;;;2.50;;
16228;SDS011;8222;51.462;12.630;2023-02-03T15:36:57;9.43;;;3.03;;
16228;SDS011;8222;51.462;12.630;2023-02-03T15:42:37;9.10;;;2.95;;
16228;SDS011;8222;51.462;12.630;2023-02-03T15:48:06;10.43;;;2.80;;
16228;SDS011;8222;51.462;12.630;2023-02-03T15:50:47;10.63;;;2.75;;
16228;SDS011;8222;51.462;12.630;2023-02-03T15:55:55;12.20;;;3.03;;
16228;SDS011;8222;51.462;12.630;2023-02-03T15:58:26;11.25;;;2.70;;
16228;SDS011;8222;51.462;12.630;2023-02-03T16:00:57;11.35;;;2.70;;
16228;SDS011;8222;51.462;12.630;2023-02-03T16:05:54;9.57;;;2.45;;
16228;SDS011;8222;51.462;12.630;2023-02-03T16:08:27;8.70;;;2.63;;
16228;SDS011;8222;51.462;12.630;2023-02-03T16:13:51;8.65;;;2.70;;
16228;SDS011;8222;51.462;12.630;2023-02-03T16:18:54;7.95;;;2.78;;
16228;SDS011;8222;51.462;12.630;2023-02-03T16:23:55;6.90;;;2.28;;
16228;SDS011;8222;51.462;12.630;2023-02-03T16:26:22;7.90;;;2.83;;
16228;SDS011;8222;51.462;12.630;2023-02-03T16:31:46;6.85;;;2.60;;
16228;SDS011;8222;51.462;12.630;2023-02-03T16:34:31;6.75;;;3.22;;
16228;SDS011;8222;51.462;12.630;2023-02-03T16:37:42;14.30;;;3.13;;
16228;SDS011;8222;51.462;12.630;2023-02-03T16:40:26;7.70;;;2.67;;
16228;SDS011;8222;51.462;12.630;2023-02-03T16:43:12;8.40;;;2.27;;
16228;SDS011;8222;51.462;12.630;2023-02-03T16:45:58;12.65;;;2.80;;
16228;SDS011;8222;51.462;12.630;2023-02-03T16:48:44;8.43;;;2.33;;
16228;SDS011;8222;51.462;12.630;2023-02-03T16:51:39;8.38;;;2.72;;
16228;SDS011;8222;51.462;12.630;2023-02-03T16:54:07;9.25;;;2.05;;
16228;SDS011;8222;51.462;12.630;2023-02-03T16:56:36;8.13;;;2.42;;
16228;SDS011;8222;51.462;12.630;2023-02-03T16:59:03;8.35;;;2.72;;
16228;SDS011;8222;51.462;12.630;2023-02-03T17:01:28;8.88;;;2.40;;
16228;SDS011;8222;51.462;12.630;2023-02-03T17:03:54;8.37;;;2.60;;
16228;SDS011;8222;51.462;12.630;2023-02-03T17:06:20;8.17;;;2.33;;
16228;SDS011;8222;51.462;12.630;2023-02-03T17:08:45;8.05;;;2.70;;
16228;SDS011;8222;51.462;12.630;2023-02-03T17:11:14;10.43;;;2.20;;
16228;SDS011;8222;51.462;12.630;2023-02-03T17:13:42;8.05;;;2.15;;
16228;SDS011;8222;51.462;12.630;2023-02-03T17:16:10;8.18;;;2.17;;
16228;SDS011;8222;51.462;12.630;2023-02-03T17:18:41;8.77;;;2.20;;
16228;SDS011;8222;51.462;12.630;2023-02-03T17:21:11;8.32;;;2.67;;
16228;SDS011;8222;51.462;12.630;2023-02-03T17:23:39;8.20;;;2.45;;
16228;SDS011;8222;51.462;12.630;2023-02-03T17:26:05;9.88;;;2.38;;
16228;SDS011;8222;51.462;12.630;2023-02-03T17:28:31;7.65;;;1.98;;
16228;SDS011;8222;51.462;12.630;2023-02-03T17:30:58;10.10;;;2.70;;
16228;SDS011;8222;51.462;12.630;2023-02-03T17:33:29;8.05;;;2.90;;
16228;SDS011;8222;51.462;12.630;2023-02-03T17:36:05;7.47;;;2.55;;
16228;SDS011;8222;51.462;12.630;2023-02-03T17:38:35;6.57;;;2.15;;
16228;SDS011;8222;51.462;12.630;2023-02-03T17:41:12;8.93;;;2.63;;
16228;SDS011;8222;51.462;12.630;2023-02-03T17:43:40;8.32;;;2.30;;
16228;SDS011;8222;51.462;12.630;2023-02-03T17:46:09;8.18;;;2.42;;
16228;SDS011;8222;51.462;12.630;2023-02-03T17:48:36;11.05;;;2.60;;
16228;SDS011;8222;51.462;12.630;2023-02-03T17:53:34;11.05;;;2.85;;
16228;SDS011;8222;51.462;12.630;2023-02-03T17:56:09;10.32;;;2.92;;
16228;SDS011;8222;51.462;12.630;2023-02-03T17:58:53;6.00;;;2.20;;
16228;SDS011;8222;51.462;12.630;2023-02-03T18:01:20;7.45;;;2.85;;
16228;SDS011;8222;51.462;12.630;2023-02-03T18:04:00;9.25;;;2.80;;
16228;SDS011;8222;51.462;12.630;2023-02-03T18:06:28;8.77;;;2.47;;